createdAt,value
2018-11-06T00:02:01.140Z,43.86
2018-11-06T00:04:27.196Z,43.71
2018-11-06T00:06:53.217Z,43.75
2018-11-06T00:09:19.268Z,44.63
2018-11-06T00:11:45.175Z,44.15
2018-11-06T00:14:11.129Z,44.59
2018-11-06T00:16:37.084Z,44.21
2018-11-06T00:19:03.078Z,44.71
2018-11-06T00:21:29.092Z,44.08
2018-11-06T00:23:55.049Z,44.03
2018-11-06T00:26:21.059Z,44.04
2018-11-06T00:28:47.005Z,44.80
2018-11-06T00:31:13.038Z,44.60
2018-11-06T00:33:39.013Z,44.13
2018-11-06T00:36:04.991Z,44.39
2018-11-06T00:38:30.968Z,44.00
2018-11-06T00:40:56.965Z,43.67
2018-11-06T00:43:22.980Z,43.57
2018-11-06T00:45:48.963Z,44.15
2018-11-06T00:48:14.928Z,43.83
2018-11-06T00:50:40.916Z,43.55
2018-11-06T00:53:06.871Z,44.68
2018-11-06T00:55:32.844Z,43.97
2018-11-06T00:57:58.799Z,44.25
2018-11-06T01:00:24.793Z,44.62
2018-11-06T01:02:51.580Z,43.92
2018-11-06T01:05:17.536Z,44.00
2018-11-06T01:07:43.592Z,44.26
2018-11-06T01:10:09.601Z,43.83
2018-11-06T01:12:35.915Z,44.03
2018-11-06T01:15:01.893Z,44.10
2018-11-06T01:17:27.861Z,44.21
2018-11-06T01:19:53.862Z,44.50
2018-11-06T01:22:19.821Z,45.32
2018-11-06T01:24:45.806Z,45.68
2018-11-06T01:27:11.754Z,45.58
2018-11-06T01:29:37.723Z,45.79
2018-11-06T01:32:03.793Z,44.92
2018-11-06T01:34:29.736Z,44.84
2018-11-06T01:36:55.728Z,44.66
2018-11-06T01:39:21.709Z,45.21
2018-11-06T01:41:47.689Z,44.59
2018-11-06T01:44:13.647Z,45.05
2018-11-06T01:46:39.615Z,44.95
2018-11-06T01:49:05.580Z,44.31
2018-11-06T01:51:31.561Z,44.17
2018-11-06T01:53:57.526Z,44.49
2018-11-06T01:56:23.505Z,44.46
2018-11-06T01:58:49.489Z,44.26
2018-11-06T02:01:15.577Z,44.16
2018-11-06T02:03:41.540Z,44.22
2018-11-06T02:06:07.520Z,44.62
2018-11-06T02:08:33.536Z,43.99
2018-11-06T02:10:59.507Z,43.85
2018-11-06T02:13:25.463Z,44.65
2018-11-06T02:15:51.445Z,44.60
2018-11-06T02:18:17.400Z,44.77
2018-11-06T02:20:43.345Z,44.85
2018-11-06T02:23:09.295Z,44.17
2018-11-06T02:25:35.238Z,44.00
2018-11-06T02:28:01.223Z,44.63
2018-11-06T02:30:27.191Z,44.21
2018-11-06T02:32:53.131Z,43.95
2018-11-06T02:35:19.113Z,44.02
2018-11-06T02:37:45.089Z,43.92
2018-11-06T02:40:11.048Z,44.55
2018-11-06T02:42:37.009Z,44.28
2018-11-06T02:45:02.998Z,45.04
2018-11-06T02:47:28.976Z,45.28
2018-11-06T02:49:54.919Z,44.64
2018-11-06T02:52:20.889Z,45.37
2018-11-06T02:54:46.896Z,45.65
2018-11-06T02:57:12.865Z,45.29
2018-11-06T02:59:38.833Z,45.44
2018-11-06T03:02:05.375Z,45.24
2018-11-06T03:04:31.323Z,45.22
2018-11-06T03:06:57.289Z,45.46
2018-11-06T03:09:23.256Z,45.65
2018-11-06T03:11:49.242Z,44.76
2018-11-06T03:14:15.208Z,45.24
2018-11-06T03:16:41.248Z,44.47
2018-11-06T03:19:07.207Z,44.57
2018-11-06T03:21:33.149Z,44.69
2018-11-06T03:23:59.128Z,45.23
2018-11-06T03:26:25.076Z,45.13
2018-11-06T03:28:51.072Z,44.35
2018-11-06T03:31:17.031Z,44.19
2018-11-06T03:33:46.544Z,44.62
2018-11-06T03:36:12.493Z,44.46
2018-11-06T03:38:38.449Z,44.44
2018-11-06T03:41:04.408Z,44.66
2018-11-06T03:43:30.384Z,44.22
2018-11-06T03:45:56.327Z,44.39
2018-11-06T03:48:22.333Z,44.52
2018-11-06T03:50:48.289Z,44.48
2018-11-06T03:53:14.270Z,44.67
2018-11-06T03:55:40.261Z,45.48
2018-11-06T03:58:06.226Z,44.92
2018-11-06T04:00:32.804Z,44.97
2018-11-06T04:02:58.804Z,44.70
2018-11-06T04:05:24.770Z,45.32
2018-11-06T04:07:50.732Z,45.01
2018-11-06T04:10:16.796Z,45.00
2018-11-06T04:12:42.814Z,45.43
2018-11-06T04:15:11.951Z,45.68
2018-11-06T04:17:38.034Z,44.94
2018-11-06T04:20:06.022Z,44.67
2018-11-06T04:22:32.038Z,44.58
2018-11-06T04:24:58.715Z,44.57
2018-11-06T04:27:25.694Z,44.46
2018-11-06T04:29:51.647Z,44.96
2018-11-06T04:32:17.660Z,44.03
2018-11-06T04:34:44.561Z,44.71
2018-11-06T04:37:10.510Z,43.95
2018-11-06T04:39:36.480Z,43.93
2018-11-06T04:42:02.455Z,43.95
2018-11-06T04:44:28.412Z,44.05
2018-11-06T04:46:54.372Z,43.90
2018-11-06T04:49:20.598Z,44.02
2018-11-06T04:51:46.572Z,44.14
2018-11-06T04:54:12.605Z,44.18
2018-11-06T04:56:38.565Z,44.01
2018-11-06T04:59:04.752Z,44.44
2018-11-06T05:01:30.689Z,43.56
2018-11-06T05:03:56.654Z,44.33
2018-11-06T05:06:22.617Z,43.43
2018-11-06T05:08:48.579Z,43.63
2018-11-06T05:11:14.536Z,44.69
2018-11-06T05:13:40.509Z,43.98
2018-11-06T05:16:06.454Z,43.59
2018-11-06T05:18:32.418Z,43.73
2018-11-06T05:20:58.379Z,44.23
2018-11-06T05:23:24.325Z,43.69
2018-11-06T05:25:50.271Z,44.37
2018-11-06T05:28:16.205Z,43.82
2018-11-06T05:30:42.182Z,44.10
2018-11-06T05:33:08.130Z,43.48
2018-11-06T05:35:34.106Z,43.63
2018-11-06T05:38:00.075Z,44.62
2018-11-06T05:40:26.021Z,44.58
2018-11-06T05:42:51.966Z,43.89
2018-11-06T05:45:17.912Z,44.27
2018-11-06T05:47:43.882Z,44.47
2018-11-06T05:50:09.851Z,45.13
2018-11-06T05:52:35.794Z,45.29
2018-11-06T05:55:01.739Z,45.10
2018-11-06T05:57:27.698Z,45.10
2018-11-06T05:59:53.668Z,44.50
2018-11-06T06:02:19.633Z,44.91
2018-11-06T06:04:45.937Z,44.69
2018-11-06T06:07:11.900Z,44.57
2018-11-06T06:09:37.853Z,44.78
2018-11-06T06:12:03.813Z,44.75
2018-11-06T06:14:29.772Z,45.15
2018-11-06T06:16:55.845Z,45.68
2018-11-06T06:19:21.735Z,45.13
2018-11-06T06:21:47.687Z,45.61
2018-11-06T06:24:13.621Z,45.01
2018-11-06T06:26:39.592Z,44.80
2018-11-06T06:29:05.524Z,44.65
2018-11-06T06:31:31.524Z,44.89
2018-11-06T06:33:57.524Z,45.07
2018-11-06T06:36:23.481Z,45.38
2018-11-06T06:38:49.565Z,44.69
2018-11-06T06:41:15.469Z,45.16
2018-11-06T06:43:41.412Z,45.06
2018-11-06T06:46:07.449Z,45.59
2018-11-06T06:48:33.363Z,45.69
2018-11-06T06:50:59.347Z,44.86
2018-11-06T06:53:25.327Z,45.29
2018-11-06T06:55:51.309Z,44.39
2018-11-06T06:58:17.423Z,44.31
2018-11-06T07:00:43.401Z,44.29
2018-11-06T07:03:09.365Z,43.78
2018-11-06T07:05:35.321Z,44.17
2018-11-06T07:08:01.277Z,43.38
2018-11-06T07:10:27.229Z,43.45
2018-11-06T07:12:53.235Z,43.24
2018-11-06T07:15:19.168Z,43.51
2018-11-06T07:17:45.128Z,43.71
2018-11-06T07:20:11.083Z,44.06
2018-11-06T07:22:37.013Z,43.66
2018-11-06T07:25:02.998Z,43.91
2018-11-06T07:27:28.977Z,43.68
2018-11-06T07:29:54.949Z,43.81
2018-11-06T07:32:20.942Z,43.68
2018-11-06T07:34:47.005Z,42.98
2018-11-06T07:37:12.859Z,43.62
2018-11-06T07:39:38.824Z,43.52
2018-11-06T07:42:04.781Z,42.86
2018-11-06T07:44:30.744Z,42.62
2018-11-06T07:46:56.686Z,43.25
2018-11-06T07:49:22.644Z,43.13
2018-11-06T07:51:48.623Z,42.38
2018-11-06T07:54:14.562Z,42.65
2018-11-06T07:56:40.509Z,42.50
2018-11-06T07:59:06.442Z,42.63
2018-11-06T08:01:32.376Z,42.27
2018-11-06T08:03:58.331Z,42.52
2018-11-06T08:06:24.369Z,42.74
2018-11-06T08:08:50.297Z,42.15
2018-11-06T08:11:16.269Z,42.51
2018-11-06T08:13:42.224Z,42.16
2018-11-06T08:16:08.200Z,42.47
2018-11-06T08:18:34.134Z,42.52
2018-11-06T08:21:00.090Z,42.92
2018-11-06T08:23:26.030Z,42.10
2018-11-06T08:25:51.998Z,42.31
2018-11-06T08:28:17.949Z,42.76
2018-11-06T08:30:44.086Z,43.15
2018-11-06T08:33:09.914Z,43.00
2018-11-06T08:35:35.875Z,43.11
2018-11-06T08:38:01.839Z,44.17
2018-11-06T08:40:27.798Z,43.21
2018-11-06T08:42:53.757Z,43.26
2018-11-06T08:45:19.711Z,43.01
2018-11-06T08:47:45.665Z,43.24
2018-11-06T08:50:11.644Z,42.92
2018-11-06T08:52:37.591Z,42.86
2018-11-06T08:55:03.534Z,43.18
2018-11-06T08:57:29.574Z,43.37
2018-11-06T08:59:55.551Z,43.22
2018-11-06T09:02:21.535Z,44.08
2018-11-06T09:04:47.481Z,43.79
2018-11-06T09:07:13.418Z,43.51
2018-11-06T09:09:39.383Z,43.13
2018-11-06T09:12:05.396Z,43.19
2018-11-06T09:14:31.371Z,42.44
2018-11-06T09:16:57.401Z,42.44
2018-11-06T09:19:23.292Z,42.18
2018-11-06T09:21:49.264Z,42.27
2018-11-06T09:24:15.327Z,42.08
2018-11-06T09:26:41.291Z,42.65
2018-11-06T09:29:07.257Z,42.34
2018-11-06T09:31:33.217Z,41.46
2018-11-06T09:33:59.160Z,41.30
2018-11-06T09:36:25.145Z,42.03
2018-11-06T09:38:51.865Z,41.18
2018-11-06T09:41:17.837Z,41.13
2018-11-06T09:43:43.856Z,41.26
2018-11-06T09:46:09.867Z,42.23
2018-11-06T09:48:35.830Z,41.39
2018-11-06T09:51:01.802Z,42.46
2018-11-06T09:53:27.804Z,41.91
2018-11-06T09:55:53.886Z,42.05
2018-11-06T09:58:19.956Z,42.01
2018-11-06T10:00:45.889Z,41.33
2018-11-06T10:03:11.858Z,41.90
2018-11-06T10:05:37.950Z,41.96
2018-11-06T10:08:03.924Z,41.53
2018-11-06T10:10:29.884Z,41.27
2018-11-06T10:12:55.882Z,41.05
2018-11-06T10:15:21.890Z,41.25
2018-11-06T10:17:47.844Z,41.98
2018-11-06T10:20:13.784Z,42.41
2018-11-06T10:22:39.756Z,41.85
2018-11-06T10:25:05.718Z,42.89
2018-11-06T10:27:31.721Z,42.81
2018-11-06T10:29:57.688Z,42.45
2018-11-06T10:32:23.657Z,41.90
2018-11-06T10:34:49.628Z,42.26
2018-11-06T10:37:15.582Z,42.18
2018-11-06T10:39:41.563Z,41.73
2018-11-06T10:42:07.551Z,41.75
2018-11-06T10:44:33.517Z,42.32
2018-11-06T10:46:59.472Z,42.66
2018-11-06T10:49:25.442Z,41.95
2018-11-06T10:51:51.472Z,42.00
2018-11-06T10:54:17.418Z,42.76
2018-11-06T10:56:43.415Z,42.72
2018-11-06T10:59:09.390Z,42.58
2018-11-06T11:01:35.379Z,42.24
2018-11-06T11:04:01.391Z,42.06
2018-11-06T11:06:27.320Z,41.89
2018-11-06T11:08:53.284Z,41.49
2018-11-06T11:11:19.262Z,42.17
2018-11-06T11:13:45.250Z,41.50
2018-11-06T11:16:11.215Z,42.37
2018-11-06T11:18:37.199Z,41.79
2018-11-06T11:21:03.150Z,40.83
2018-11-06T11:23:29.130Z,41.19
2018-11-06T11:25:55.131Z,40.96
2018-11-06T11:28:21.125Z,40.45
2018-11-06T11:30:47.154Z,40.44
2018-11-06T11:33:13.140Z,40.84
2018-11-06T11:35:39.105Z,40.93
2018-11-06T11:38:05.077Z,41.66
2018-11-06T11:40:31.042Z,40.94
2018-11-06T11:42:57.002Z,41.63
2018-11-06T11:45:22.953Z,41.60
2018-11-06T11:47:48.893Z,41.26
2018-11-06T11:50:14.869Z,42.04
2018-11-06T11:52:40.836Z,41.19
2018-11-06T11:55:06.818Z,41.66
2018-11-06T11:57:32.800Z,41.18
2018-11-06T11:59:58.806Z,41.14
2018-11-06T12:02:24.715Z,41.02
2018-11-06T12:04:52.690Z,41.85
2018-11-06T12:07:18.618Z,40.69
2018-11-06T12:09:44.587Z,41.79
2018-11-06T12:12:10.547Z,41.39
2018-11-06T12:14:36.510Z,41.19
2018-11-06T12:17:02.472Z,41.33
2018-11-06T12:19:28.435Z,41.27
2018-11-06T12:21:54.470Z,41.11
2018-11-06T12:24:20.515Z,41.38
2018-11-06T12:26:47.382Z,41.07
2018-11-06T12:29:13.554Z,41.52
2018-11-06T12:31:39.767Z,41.98
2018-11-06T12:34:10.086Z,41.21
2018-11-06T12:36:37.478Z,41.07
2018-11-06T12:39:08.366Z,41.52
2018-11-06T12:41:35.290Z,41.36
2018-11-06T12:44:01.276Z,41.27
2018-11-06T12:46:27.237Z,41.22
2018-11-06T12:48:54.243Z,41.63
2018-11-06T12:51:20.208Z,41.09
2018-11-06T12:53:46.256Z,42.13
2018-11-06T12:56:12.305Z,41.59
2018-11-06T12:58:38.214Z,41.42
2018-11-06T13:01:04.191Z,41.86
2018-11-06T13:03:30.205Z,41.24
2018-11-06T13:05:56.135Z,41.65
2018-11-06T13:08:22.087Z,41.25
2018-11-06T13:10:48.124Z,41.37
2018-11-06T13:20:48.667Z,41.42
2018-11-06T13:23:14.604Z,41.73
2018-11-06T13:25:40.788Z,41.58
2018-11-06T13:28:06.719Z,41.31
2018-11-06T13:30:32.711Z,41.29
2018-11-06T13:35:29.942Z,41.98
2018-11-06T13:37:55.928Z,41.92
2018-11-06T13:40:21.878Z,41.57
2018-11-06T13:42:47.982Z,41.29
2018-11-06T13:45:14.087Z,41.67
2018-11-06T13:47:43.502Z,42.51
2018-11-06T13:52:41.284Z,41.47
2018-11-06T13:55:07.232Z,41.42
2018-11-06T13:57:33.189Z,41.47
2018-11-06T13:59:59.157Z,42.45
2018-11-06T14:02:25.124Z,42.42
2018-11-06T14:04:51.137Z,41.69
2018-11-06T14:07:17.083Z,42.01
2018-11-06T14:09:43.056Z,42.70
2018-11-06T14:12:09.006Z,41.85
2018-11-06T14:14:34.959Z,42.22
2018-11-06T14:17:00.929Z,42.15
2018-11-06T14:19:26.905Z,43.09
2018-11-06T14:21:52.901Z,42.94
2018-11-06T14:24:18.887Z,42.85
2018-11-06T14:26:44.931Z,42.80
2018-11-06T14:29:10.874Z,43.24
2018-11-06T14:31:36.839Z,42.68
2018-11-06T14:34:02.799Z,42.46
2018-11-06T14:36:28.778Z,42.56
2018-11-06T14:38:54.734Z,42.92
2018-11-06T14:41:20.717Z,42.93
2018-11-06T14:43:46.682Z,43.11
2018-11-06T14:46:12.655Z,43.04
2018-11-06T14:48:38.785Z,43.69
2018-11-06T14:51:05.317Z,42.76
2018-11-06T14:53:31.305Z,42.82
2018-11-06T14:55:57.327Z,42.39
2018-11-06T14:58:26.918Z,42.33
2018-11-06T15:00:52.870Z,42.45
2018-11-06T15:03:18.808Z,42.50
2018-11-06T15:05:44.850Z,42.79
2018-11-06T15:08:10.754Z,42.67
2018-11-06T15:10:36.698Z,43.01
2018-11-06T15:13:02.738Z,42.78
2018-11-06T15:15:28.693Z,42.82
2018-11-06T15:17:54.651Z,42.85
2018-11-06T15:20:20.605Z,43.11
2018-11-06T15:25:17.901Z,43.32
2018-11-06T15:27:43.861Z,42.49
2018-11-06T15:30:09.889Z,42.74
2018-11-06T15:32:35.862Z,42.89
2018-11-06T15:35:01.817Z,42.87
2018-11-06T15:37:28.804Z,42.27
2018-11-06T15:39:54.758Z,43.19
2018-11-06T15:42:20.824Z,42.87
2018-11-06T15:44:46.775Z,42.94
2018-11-06T15:47:12.795Z,42.99
2018-11-06T15:49:38.789Z,42.77
2018-11-06T15:52:04.787Z,43.53
2018-11-06T15:54:30.822Z,44.06
2018-11-06T15:56:56.737Z,43.76
2018-11-06T15:59:22.701Z,44.16
2018-11-06T16:01:48.712Z,43.62
2018-11-06T16:04:14.697Z,44.44
2018-11-06T16:06:40.704Z,44.21
2018-11-06T16:09:06.736Z,43.84
2018-11-06T16:11:33.782Z,43.68
2018-11-06T16:13:59.753Z,43.84
2018-11-06T16:16:27.797Z,44.00
2018-11-06T16:18:53.877Z,43.19
2018-11-06T16:21:19.853Z,43.76
2018-11-06T16:23:45.861Z,42.72
2018-11-06T16:26:12.869Z,42.51
2018-11-06T16:28:38.911Z,42.71
2018-11-06T16:31:04.976Z,42.59
2018-11-06T16:33:31.116Z,43.17
2018-11-06T16:35:57.127Z,43.23
2018-11-06T16:38:23.750Z,42.87
2018-11-06T16:40:51.804Z,43.51
2018-11-06T16:43:17.760Z,43.04
2018-11-06T16:45:43.724Z,43.85
2018-11-06T16:48:09.835Z,43.23
2018-11-06T16:50:35.772Z,43.49
2018-11-06T16:53:01.856Z,44.19
2018-11-06T16:55:27.833Z,43.90
2018-11-06T16:57:53.825Z,44.13
2018-11-06T17:00:19.923Z,43.36
2018-11-06T17:02:48.047Z,43.40
2018-11-06T17:05:14.020Z,43.43
2018-11-06T17:07:39.984Z,44.02
2018-11-06T17:10:05.978Z,43.97
2018-11-06T17:12:33.993Z,44.09
2018-11-06T17:14:59.974Z,44.55
2018-11-06T17:17:26.030Z,44.68
2018-11-06T17:19:51.958Z,44.87
2018-11-06T17:22:19.934Z,44.24
2018-11-06T17:24:45.973Z,43.97
2018-11-06T17:27:11.922Z,44.39
2018-11-06T17:29:37.938Z,44.18
2018-11-06T17:32:03.889Z,44.47
2018-11-06T17:34:29.839Z,44.34
2018-11-06T17:36:55.831Z,44.46
2018-11-06T17:39:21.878Z,44.21
2018-11-06T17:41:47.852Z,43.80
2018-11-06T17:44:14.022Z,44.63
2018-11-06T17:46:40.020Z,44.81
2018-11-06T17:49:05.992Z,44.75
2018-11-06T17:51:31.935Z,44.89
2018-11-06T17:53:57.878Z,45.28
2018-11-06T17:56:23.936Z,44.59
2018-11-06T17:58:49.964Z,44.56
2018-11-06T18:01:15.936Z,45.07
2018-11-06T18:03:41.908Z,44.29
2018-11-06T18:06:07.989Z,44.42
2018-11-06T18:08:34.007Z,44.35
2018-11-06T18:11:02.375Z,45.22
2018-11-06T18:13:28.511Z,44.51
2018-11-06T18:15:55.177Z,45.43
2018-11-06T18:18:23.479Z,45.58
2018-11-06T18:20:49.607Z,45.43
2018-11-06T18:23:17.342Z,44.93
2018-11-06T18:25:50.129Z,44.92
2018-11-06T18:28:17.530Z,45.71
2018-11-06T18:30:44.729Z,45.22
2018-11-06T18:33:11.602Z,45.57
2018-11-06T18:35:41.184Z,45.76
2018-11-06T18:38:07.538Z,45.12
2018-11-06T18:40:34.964Z,45.79
2018-11-06T18:43:02.070Z,45.97
2018-11-06T18:45:28.982Z,46.04
2018-11-06T18:47:58.764Z,45.90
2018-11-06T18:50:26.018Z,45.36
2018-11-06T18:52:52.209Z,45.79
2018-11-06T18:55:19.020Z,45.86
2018-11-06T18:57:45.256Z,45.04
2018-11-06T19:00:11.701Z,45.78
2018-11-06T19:02:38.899Z,45.12
2018-11-06T19:05:05.051Z,45.93
2018-11-06T19:07:32.892Z,46.12
2018-11-06T19:09:59.040Z,45.58
2018-11-06T19:12:27.110Z,45.96
2018-11-06T19:14:53.240Z,46.08
2018-11-06T19:17:19.454Z,45.94
2018-11-06T19:19:45.547Z,45.87
2018-11-06T19:22:14.826Z,45.73
2018-11-06T19:24:41.634Z,45.97
2018-11-06T19:27:10.868Z,46.08
2018-11-06T19:29:37.037Z,45.51
2018-11-06T19:34:35.982Z,45.72
2018-11-06T19:37:02.177Z,45.50
2018-11-06T19:39:29.018Z,46.83
2018-11-06T19:41:55.147Z,46.01
2018-11-06T19:44:21.281Z,45.50
2018-11-06T19:46:47.833Z,45.78
2018-11-06T20:34:07.055Z,44.08
2018-11-06T20:36:33.098Z,44.45
2018-11-06T20:39:01.360Z,44.96
2018-11-06T20:41:29.780Z,44.53
2018-11-06T20:43:56.972Z,44.61
2018-11-06T20:46:23.143Z,44.91
2018-11-06T20:48:52.613Z,44.78
2018-11-06T20:53:51.088Z,44.87
2018-11-06T20:56:17.130Z,45.00
2018-11-06T20:58:45.259Z,44.18
2018-11-06T21:01:14.558Z,44.91
2018-11-06T21:03:40.742Z,44.88
2018-11-06T21:10:44.859Z,45.74
2018-11-06T21:13:19.555Z,45.01
2018-11-06T21:15:46.621Z,44.32
2018-11-06T21:20:44.602Z,43.76
2018-11-06T21:23:13.316Z,44.14
2018-11-06T21:28:11.651Z,43.48
2018-11-06T21:30:37.912Z,43.37
2018-11-06T21:35:36.666Z,43.54
2018-11-06T21:40:41.060Z,44.07
2018-11-06T21:45:38.930Z,43.94
2018-11-06T21:48:06.022Z,44.42
2018-11-06T21:50:38.980Z,44.25
2018-11-06T21:53:05.149Z,44.56
2018-11-06T21:55:31.385Z,44.09
2018-11-06T21:57:57.519Z,44.21
2018-11-06T22:02:55.675Z,44.33
2018-11-06T22:05:23.001Z,43.85
2018-11-06T22:07:49.296Z,44.14
2018-11-06T22:10:15.670Z,44.12
2018-11-06T22:12:52.925Z,43.67
2018-11-06T22:17:54.057Z,43.44
2018-11-06T22:39:00.649Z,43.48
2018-11-06T22:41:29.656Z,43.66
2018-11-06T22:43:57.141Z,43.52
2018-11-06T22:49:12.995Z,43.45
2018-11-06T22:51:38.986Z,43.45
2018-11-06T22:54:05.952Z,43.31
2018-11-06T22:59:07.737Z,43.18
2018-11-06T23:15:22.096Z,48.43
2018-11-06T23:17:54.236Z,46.41
2018-11-06T23:20:22.609Z,45.25
2018-11-06T23:22:50.934Z,44.57
2018-11-06T23:25:18.057Z,44.19
2018-11-06T23:27:44.274Z,43.95
2018-11-06T23:30:11.528Z,43.34
2018-11-06T23:35:33.643Z,43.60
2018-11-06T23:38:01.060Z,42.73
2018-11-06T23:40:29.154Z,43.15
2018-11-06T23:42:56.216Z,42.40
2018-11-06T23:45:23.849Z,42.62
2018-11-06T23:50:22.492Z,42.80
2018-11-06T23:52:48.670Z,42.65
2018-11-06T23:55:15.918Z,42.80
2018-11-06T23:57:42.205Z,42.35
